Time;durP1;ratioP1;P1;durP2;ratioP2;P2;SDS_P1;SDS_P2;PMS_P1;PMS_P2;Temp;Humidity;BMP_temperature;BMP_pressure;BME280_temperature;BME280_humidity;BME280_pressure;Samples;Min_cycle;Max_cycle;Signal;HPM_P1;HPM_P2
2021/10/01 00:00:54;;;;;;;4.82;1.85;;;;;;;-148.22;100.00;64452.44;5017068;28;20064;-74
2021/10/01 00:03:20;;;;;;;3.55;1.48;;;;;;;-148.22;100.00;64452.44;5004191;28;20472;-74
2021/10/01 00:05:45;;;;;;;4.53;1.65;;;;;;;-148.22;100.00;64452.44;5008282;28;20115;-74
2021/10/01 00:08:10;;;;;;;5.55;3.05;;;;;;;-148.22;100.00;64452.44;5015343;28;20029;-73
2021/10/01 00:10:36;;;;;;;4.70;1.70;;;;;;;-148.22;100.00;64452.44;5016145;28;20036;-74
2021/10/01 00:13:01;;;;;;;3.15;1.38;;;;;;;-148.22;100.00;64452.44;5004796;28;20038;-74
2021/10/01 00:15:28;;;;;;;3.80;1.65;;;;;;;-148.22;100.00;64452.44;5016894;28;20546;-74
2021/10/01 00:17:54;;;;;;;5.70;1.60;;;;;;;-148.22;100.00;64452.44;5003430;28;20032;-73
2021/10/01 00:20:19;;;;;;;3.97;2.00;;;;;;;-148.22;100.00;64452.44;5014900;28;20022;-74
2021/10/01 00:22:45;;;;;;;6.18;2.00;;;;;;;-148.22;100.00;64452.44;5003060;28;20030;-74
2021/10/01 00:25:10;;;;;;;2.72;1.45;;;;;;;-148.22;100.00;64452.44;5002547;28;20025;-74
2021/10/01 00:27:35;;;;;;;3.83;1.70;;;;;;;-148.22;100.00;64452.44;5004799;28;20494;-74
2021/10/01 00:30:03;;;;;;;4.90;1.67;;;;;;;-148.22;100.00;64452.44;5002073;28;20026;-74
2021/10/01 00:32:28;;;;;;;5.65;1.80;;;;;;;-148.22;100.00;64452.44;5001967;28;20034;-74
2021/10/01 00:34:53;;;;;;;4.03;1.73;;;;;;;-148.22;100.00;64452.44;5003439;28;20032;-73
2021/10/01 00:37:19;;;;;;;9.65;2.42;;;;;;;-148.22;100.00;64452.44;5003862;28;20045;-74
2021/10/01 00:39:44;;;;;;;8.20;2.53;;;;;;;-148.22;100.00;64452.44;5004905;28;20051;-73
2021/10/01 00:42:10;;;;;;;5.28;2.00;;;;;;;-148.22;100.00;64452.44;5003294;28;20071;-74
2021/10/01 00:44:35;;;;;;;4.68;2.20;;;;;;;-148.22;100.00;64452.44;5015999;28;20124;-73
2021/10/01 00:47:00;;;;;;;4.05;1.92;;;;;;;-148.22;100.00;64452.44;5003425;28;20021;-74
2021/10/01 00:49:26;;;;;;;3.50;1.33;;;;;;;-148.22;100.00;64452.44;5014595;28;20030;-74
2021/10/01 00:51:52;;;;;;;4.20;1.90;;;;;;;-148.22;100.00;64452.44;5024569;28;20483;-74
2021/10/01 00:54:18;;;;;;;4.55;1.63;;;;;;;-148.22;100.00;64452.44;4992845;28;20053;-74
2021/10/01 00:56:44;;;;;;;5.10;2.15;;;;;;;-148.22;100.00;64452.44;4992150;28;20025;-74
2021/10/01 00:59:10;;;;;;;5.57;1.70;;;;;;;-148.22;100.00;64452.44;5013089;28;20127;-74
2021/10/01 01:01:35;;;;;;;4.32;2.00;;;;;;;-148.22;100.00;64452.44;5039052;28;20058;-74
2021/10/01 01:04:04;;;;;;;3.22;1.55;;;;;;;-148.22;100.00;64452.44;5015484;28;20104;-74
2021/10/01 01:06:48;;;;;;;3.63;1.00;;;;;;;-148.22;100.00;64452.44;5004106;28;20056;-74
2021/10/01 01:09:29;;;;;;;2.47;1.27;;;;;;;-148.22;100.00;64452.44;5013942;28;20044;-73
2021/10/01 01:11:54;;;;;;;4.47;2.13;;;;;;;-148.22;100.00;64452.44;5019656;28;20037;-73
2021/10/01 01:14:24;;;;;;;3.70;1.60;;;;;;;-148.22;100.00;64452.44;5020193;28;20033;-74
2021/10/01 01:16:49;;;;;;;7.00;1.85;;;;;;;-148.22;100.00;64452.44;4998317;28;20036;-73
2021/10/01 01:19:29;;;;;;;2.85;1.02;;;;;;;-148.22;100.00;64452.44;4999307;28;20029;-73
2021/10/01 01:22:04;;;;;;;3.00;1.45;;;;;;;-148.22;100.00;64452.44;5001351;28;20033;-74
2021/10/01 01:25:02;;;;;;;3.63;1.17;;;;;;;-148.22;100.00;64452.44;5000286;28;20029;-73
2021/10/01 01:27:57;;;;;;;3.40;1.60;;;;;;;-148.22;100.00;64452.44;4995943;28;20411;-74
2021/10/01 01:30:23;;;;;;;2.70;1.27;;;;;;;-148.22;100.00;64452.44;5013093;28;20068;-74
2021/10/01 01:32:49;;;;;;;2.78;1.38;;;;;;;-148.22;100.00;64452.44;5014565;28;20304;-74
2021/10/01 01:35:25;;;;;;;3.97;1.70;;;;;;;-148.22;100.00;64452.44;5022989;28;20021;-74
2021/10/01 01:37:58;;;;;;;2.58;1.40;;;;;;;-148.22;100.00;64452.44;5007888;28;20051;-74
2021/10/01 01:40:28;;;;;;;4.70;1.95;;;;;;;-148.22;100.00;64452.44;5021647;28;20398;-74
2021/10/01 01:42:55;;;;;;;3.85;1.42;;;;;;;-148.22;100.00;64452.44;5010242;28;20541;-74
2021/10/01 01:45:21;;;;;;;2.30;1.30;;;;;;;-148.22;100.00;64452.44;4998982;28;20034;-74
2021/10/01 01:47:48;;;;;;;7.28;2.15;;;;;;;-148.22;100.00;64452.44;5004168;28;20508;-74
2021/10/01 01:50:14;;;;;;;3.65;1.70;;;;;;;-148.22;100.00;64452.44;5028068;28;20041;-73
2021/10/01 01:52:40;;;;;;;3.70;1.60;;;;;;;-148.22;100.00;64452.44;4994897;28;20035;-73
2021/10/01 01:55:06;;;;;;;2.20;1.23;;;;;;;-148.22;100.00;64452.44;4978778;28;20026;-74
2021/10/01 01:57:32;;;;;;;3.25;1.48;;;;;;;-148.22;100.00;64452.44;5005636;28;20048;-73
2021/10/01 01:59:59;;;;;;;2.85;1.45;;;;;;;-148.22;100.00;64452.44;5003267;28;20475;-73
2021/10/01 02:02:25;;;;;;;4.60;1.48;;;;;;;-148.22;100.00;64452.44;5009145;28;20022;-70
2021/10/01 02:04:51;;;;;;;6.90;1.50;;;;;;;-148.22;100.00;64452.44;5005555;28;20029;-70
2021/10/01 02:07:18;;;;;;;2.28;1.05;;;;;;;-148.22;100.00;64452.44;5006310;28;20030;-74
2021/10/01 02:09:44;;;;;;;1.92;1.08;;;;;;;-148.22;100.00;64452.44;5022325;28;20486;-73
2021/10/01 02:12:10;;;;;;;1.45;0.88;;;;;;;-148.22;100.00;64452.44;5020474;28;20037;-73
2021/10/01 02:14:39;;;;;;;5.25;1.30;;;;;;;-148.22;100.00;64452.44;5021182;28;20048;-73
2021/10/01 02:17:05;;;;;;;3.78;1.55;;;;;;;-148.22;100.00;64452.44;5006048;28;20447;-73
2021/10/01 02:19:33;;;;;;;2.75;1.33;;;;;;;-148.22;100.00;64452.44;5020392;28;20036;-74
2021/10/01 02:22:00;;;;;;;2.75;1.50;;;;;;;-148.22;100.00;64452.44;5018728;28;20300;-73
2021/10/01 02:24:28;;;;;;;1.48;0.80;;;;;;;-148.22;100.00;64452.44;5005750;28;20284;-73
2021/10/01 02:27:24;;;;;;;8.65;1.73;;;;;;;-148.22;100.00;64452.44;5011507;28;20048;-73
2021/10/01 02:30:01;;;;;;;3.70;1.75;;;;;;;-148.22;100.00;64452.44;5009179;28;20112;-74
2021/10/01 02:32:32;;;;;;;1.42;1.02;;;;;;;-148.22;100.00;64452.44;5014599;28;20041;-74
2021/10/01 02:34:58;;;;;;;3.85;1.38;;;;;;;-148.22;100.00;64452.44;5024716;28;20100;-74
2021/10/01 02:37:25;;;;;;;2.92;1.20;;;;;;;-148.22;100.00;64452.44;5015298;28;20520;-73
2021/10/01 02:39:52;;;;;;;4.00;1.30;;;;;;;-148.22;100.00;64452.44;5022036;28;20049;-74
2021/10/01 02:42:19;;;;;;;4.78;1.45;;;;;;;-148.22;100.00;64452.44;5014534;28;20115;-74
2021/10/01 02:44:45;;;;;;;3.45;1.42;;;;;;;-148.22;100.00;64452.44;5004611;28;20113;-74
2021/10/01 02:47:12;;;;;;;3.40;1.42;;;;;;;-148.22;100.00;64452.44;5013873;28;20376;-74
2021/10/01 02:49:39;;;;;;;2.95;1.55;;;;;;;-148.22;100.00;64452.44;5011669;28;20109;-74
2021/10/01 02:52:17;;;;;;;5.63;1.80;;;;;;;-148.22;100.00;64452.44;4996492;28;20037;-74
2021/10/01 02:54:50;;;;;;;4.95;1.35;;;;;;;-148.22;100.00;64452.44;5024571;28;20035;-73
2021/10/01 02:57:19;;;;;;;4.32;1.65;;;;;;;-148.22;100.00;64452.44;5004631;28;20753;-74
2021/10/01 02:59:48;;;;;;;3.97;1.17;;;;;;;-148.22;100.00;64452.44;5006523;28;20061;-74
2021/10/01 03:02:15;;;;;;;5.38;1.20;;;;;;;-148.22;100.00;64452.44;5013207;28;20033;-74
2021/10/01 03:04:44;;;;;;;2.78;1.35;;;;;;;-148.22;100.00;64452.44;5016371;28;20653;-73
2021/10/01 03:07:10;;;;;;;5.22;1.90;;;;;;;-148.22;100.00;64452.44;5004939;28;20029;-74
2021/10/01 03:09:36;;;;;;;5.35;1.60;;;;;;;-148.22;100.00;64452.44;5017177;28;20416;-74
2021/10/01 03:12:02;;;;;;;4.60;1.60;;;;;;;-148.22;100.00;64452.44;5012152;28;20076;-74
2021/10/01 03:14:28;;;;;;;5.53;1.45;;;;;;;-148.22;100.00;64452.44;4998952;28;20033;-74
2021/10/01 03:16:54;;;;;;;3.38;1.63;;;;;;;-148.22;100.00;64452.44;4990797;28;20493;-74
2021/10/01 03:19:22;;;;;;;3.90;1.45;;;;;;;-148.22;100.00;64452.44;5023078;28;20033;-74
2021/10/01 03:21:57;;;;;;;5.75;1.65;;;;;;;-148.22;100.00;64452.44;5009920;28;20029;-74
2021/10/01 03:24:23;;;;;;;3.05;1.45;;;;;;;-148.22;100.00;64452.44;5004424;28;20032;-74
2021/10/01 03:26:51;;;;;;;4.03;1.40;;;;;;;-148.22;100.00;64452.44;5005314;28;20635;-74
2021/10/01 03:29:17;;;;;;;5.13;1.40;;;;;;;-148.22;100.00;64452.44;5013066;28;20065;-74
2021/10/01 03:31:44;;;;;;;3.92;1.30;;;;;;;-148.22;100.00;64452.44;4997319;28;20057;-74
2021/10/01 03:34:10;;;;;;;2.92;1.23;;;;;;;-148.22;100.00;64452.44;5020214;28;20025;-74
2021/10/01 03:36:35;;;;;;;4.30;1.35;;;;;;;-148.22;100.00;64452.44;5022673;28;20159;-73
2021/10/01 03:39:02;;;;;;;4.15;1.77;;;;;;;-148.22;100.00;64452.44;5011550;28;20033;-74
2021/10/01 03:41:27;;;;;;;3.85;1.15;;;;;;;-148.22;100.00;64452.44;5005274;28;20168;-74
2021/10/01 03:43:53;;;;;;;5.05;2.45;;;;;;;-148.22;100.00;64452.44;5018036;28;20535;-74
2021/10/01 03:46:18;;;;;;;4.55;1.52;;;;;;;-148.22;100.00;64452.44;5008043;28;20273;-74
2021/10/01 03:48:44;;;;;;;5.90;1.63;;;;;;;-148.22;100.00;64452.44;5013977;28;20045;-74
2021/10/01 03:51:09;;;;;;;3.45;1.48;;;;;;;-148.22;100.00;64452.44;5023752;28;20104;-74
2021/10/01 03:53:35;;;;;;;2.55;1.20;;;;;;;-148.22;100.00;64452.44;5012342;28;20042;-74
2021/10/01 03:56:00;;;;;;;4.00;1.20;;;;;;;-148.22;100.00;64452.44;5002511;28;20061;-74
2021/10/01 03:58:25;;;;;;;4.45;1.30;;;;;;;-148.22;100.00;64452.44;5012405;28;20525;-74
2021/10/01 04:00:51;;;;;;;4.07;1.50;;;;;;;-148.22;100.00;64452.44;5023902;28;20443;-74
2021/10/01 04:03:16;;;;;;;20.73;9.43;;;;;;;-148.22;100.00;64452.44;5016686;28;20038;-74
2021/10/01 04:05:41;;;;;;;4.15;2.15;;;;;;;-148.22;100.00;64452.44;5004148;28;20049;-74
2021/10/01 04:08:11;;;;;;;6.43;1.60;;;;;;;-148.22;100.00;64452.44;5003895;28;20260;-74
2021/10/01 04:10:37;;;;;;;12.13;1.95;;;;;;;-148.22;100.00;64452.44;5003435;28;20396;-73
2021/10/01 04:13:04;;;;;;;5.18;1.73;;;;;;;-148.22;100.00;64452.44;5004801;28;20033;-73
2021/10/01 04:15:29;;;;;;;3.85;1.48;;;;;;;-148.22;100.00;64452.44;5005814;28;20260;-74
2021/10/01 04:17:55;;;;;;;6.28;1.70;;;;;;;-148.22;100.00;64452.44;4995965;28;20108;-74
2021/10/01 04:20:20;;;;;;;3.40;1.52;;;;;;;-148.22;100.00;64452.44;4991184;28;20095;-74
2021/10/01 04:22:46;;;;;;;4.20;1.70;;;;;;;-148.22;100.00;64452.44;5003055;28;20499;-74
2021/10/01 04:25:11;;;;;;;6.85;2.13;;;;;;;-148.22;100.00;64452.44;5019800;28;20049;-74
2021/10/01 04:27:37;;;;;;;50.72;27.55;;;;;;;-148.22;100.00;64452.44;5003852;28;20562;-74
2021/10/01 04:30:03;;;;;;;5.22;2.38;;;;;;;-148.22;100.00;64452.44;5002457;28;20451;-74
2021/10/01 04:32:29;;;;;;;5.47;1.90;;;;;;;-148.22;100.00;64452.44;5003575;28;20515;-73
2021/10/01 04:35:03;;;;;;;7.45;3.05;;;;;;;-148.22;100.00;64452.44;5017197;28;20557;-74
2021/10/01 04:37:28;;;;;;;3.63;1.48;;;;;;;-148.22;100.00;64452.44;5003317;28;20033;-74
2021/10/01 04:39:54;;;;;;;4.57;1.80;;;;;;;-148.22;100.00;64452.44;5016596;28;20396;-74
2021/10/01 04:42:20;;;;;;;8.98;2.00;;;;;;;-148.22;100.00;64452.44;5005224;28;20585;-74
2021/10/01 04:44:45;;;;;;;3.33;1.50;;;;;;;-148.22;100.00;64452.44;4995868;28;20151;-74
2021/10/01 04:47:11;;;;;;;5.22;1.58;;;;;;;-148.22;100.00;64452.44;5003762;28;20040;-73
2021/10/01 04:49:36;;;;;;;4.53;1.38;;;;;;;-148.22;100.00;64452.44;5004916;28;20029;-74
2021/10/01 04:52:02;;;;;;;5.70;1.90;;;;;;;-148.22;100.00;64452.44;5018009;28;20511;-74
2021/10/01 04:54:27;;;;;;;4.13;1.27;;;;;;;-148.22;100.00;64452.44;5015591;28;20033;-74
2021/10/01 04:56:53;;;;;;;3.55;1.45;;;;;;;-148.22;100.00;64452.44;5004602;28;20380;-74
2021/10/01 04:59:18;;;;;;;4.68;1.52;;;;;;;-148.22;100.00;64452.44;4996137;28;20827;-74
2021/10/01 05:01:43;;;;;;;4.63;1.58;;;;;;;-148.22;100.00;64452.44;5003865;28;20041;-71
2021/10/01 05:04:09;;;;;;;3.13;1.17;;;;;;;-148.22;100.00;64452.44;5005616;28;20038;-71
2021/10/01 05:06:34;;;;;;;3.47;1.45;;;;;;;-148.22;100.00;64452.44;5002212;28;20065;-70
2021/10/01 05:08:59;;;;;;;4.03;1.63;;;;;;;-148.22;100.00;64452.44;5004804;28;20033;-71
2021/10/01 05:11:25;;;;;;;5.57;1.33;;;;;;;-148.22;100.00;64452.44;5008462;28;20057;-71
2021/10/01 05:13:50;;;;;;;4.03;1.70;;;;;;;-148.22;100.00;64452.44;5004771;28;20053;-70
2021/10/01 05:16:15;;;;;;;7.70;2.45;;;;;;;-148.22;100.00;64452.44;5002286;28;20041;-70
2021/10/01 05:18:41;;;;;;;2.63;1.50;;;;;;;-148.22;100.00;64452.44;5002150;28;20172;-70
2021/10/01 05:21:06;;;;;;;1.38;0.80;;;;;;;-148.22;100.00;64452.44;5005274;28;20924;-71
2021/10/01 05:23:31;;;;;;;3.78;1.67;;;;;;;-148.22;100.00;64452.44;5008804;28;20112;-70
2021/10/01 05:25:57;;;;;;;5.15;1.63;;;;;;;-148.22;100.00;64452.44;4996895;28;20038;-71
2021/10/01 05:28:24;;;;;;;3.47;1.50;;;;;;;-148.22;100.00;64452.44;5016002;28;20117;-71
2021/10/01 05:30:49;;;;;;;4.80;1.50;;;;;;;-148.22;100.00;64452.44;5005425;28;20090;-71
2021/10/01 05:33:15;;;;;;;5.07;1.67;;;;;;;-148.22;100.00;64452.44;5004688;28;20037;-71
2021/10/01 05:35:43;;;;;;;2.90;1.38;;;;;;;-148.22;100.00;64452.44;5008224;28;20040;-71
2021/10/01 05:38:09;;;;;;;2.45;1.40;;;;;;;-148.22;100.00;64452.44;5009048;28;20026;-71
2021/10/01 05:40:35;;;;;;;4.43;1.77;;;;;;;-148.22;100.00;64452.44;5005508;28;20097;-70
2021/10/01 05:45:33;;;;;;;7.38;1.70;;;;;;;5.59;76.33;97895.03;5042747;28;20385;-72
2021/10/01 05:47:59;;;;;;;8.07;3.50;;;;;;;5.58;76.36;97895.22;5035840;28;20076;-72
2021/10/01 05:50:27;;;;;;;7.20;2.33;;;;;;;5.54;76.55;97897.50;5038796;28;20510;-75
2021/10/01 05:53:35;;;;;;;12.40;4.30;;;;;;;5.51;76.65;97895.22;5037796;28;20056;-76
2021/10/01 05:55:41;;;;;;;13.15;4.45;;;;;;;5.53;76.78;97893.13;5035527;28;20037;-76
2021/10/01 05:58:06;;;;;;;7.22;2.80;;;;;;;5.52;76.66;97891.50;5000530;28;20104;-75
2021/10/01 06:00:34;;;;;;;7.53;2.28;;;;;;;5.51;76.56;97889.00;5022552;28;20184;-75
2021/10/01 06:02:59;;;;;;;3.33;1.33;;;;;;;5.47;76.91;97891.28;5022306;28;20029;-76
2021/10/01 06:05:26;;;;;;;3.65;1.90;;;;;;;5.55;76.83;97892.94;5039706;28;20035;-75
2021/10/01 06:07:52;;;;;;;3.25;1.90;;;;;;;5.56;76.66;97889.22;5015238;28;20546;-74
2021/10/01 06:10:17;;;;;;;5.90;2.15;;;;;;;5.57;76.83;97883.63;5007213;28;20037;-75
2021/10/01 06:12:42;;;;;;;6.03;2.30;;;;;;;5.63;76.60;97887.34;5023523;28;20061;-75
2021/10/01 06:15:08;;;;;;;4.15;1.20;;;;;;;5.70;76.42;97887.34;5025252;28;20026;-75
2021/10/01 06:17:34;;;;;;;5.30;2.25;;;;;;;5.80;76.08;97885.09;5029930;28;20247;-75
2021/10/01 06:20:02;;;;;;;7.85;2.50;;;;;;;5.84;76.22;97883.63;5037296;28;20033;-75
2021/10/01 06:22:27;;;;;;;2.20;0.95;;;;;;;5.90;75.92;97891.91;5021977;28;20025;-75
2021/10/01 06:24:53;;;;;;;5.00;1.20;;;;;;;5.96;75.95;97885.69;5018627;28;20047;-75
2021/10/01 06:27:19;;;;;;;3.42;1.50;;;;;;;6.05;75.61;97889.00;5036063;28;20095;-74
2021/10/01 06:29:46;;;;;;;4.80;1.98;;;;;;;6.16;75.42;97896.41;5036872;28;20116;-76
2021/10/01 06:32:11;;;;;;;3.90;1.23;;;;;;;6.30;75.02;97891.84;5022558;28;20052;-75
2021/10/01 06:34:36;;;;;;;4.15;1.52;;;;;;;6.44;74.53;97889.94;5019343;28;20470;-75
2021/10/01 06:37:02;;;;;;;2.83;1.40;;;;;;;6.64;73.78;97891.72;5014561;28;20028;-74
2021/10/01 06:39:27;;;;;;;3.88;1.60;;;;;;;6.77;73.75;97885.44;5032981;28;20431;-76
2021/10/01 06:41:52;;;;;;;4.57;2.25;;;;;;;6.83;73.55;97883.78;5024936;28;20105;-75
2021/10/01 06:44:24;;;;;;;3.28;1.48;;;;;;;7.03;72.97;97886.34;5026634;28;20024;-75
2021/10/01 06:46:53;;;;;;;;;;;;;;;7.23;72.39;97882.72;5008398;28;20037;-76
2021/10/01 06:49:44;;;;;;;4.22;1.33;;;;;;;7.35;72.25;97872.06;5026794;28;19967;-76
2021/10/01 08:19:23;;;;;;;7.68;1.10;;;;;;;13.05;55.42;97868.44;5024421;28;20076;-76
2021/10/01 08:21:51;;;;;;;2.30;0.77;;;;;;;13.23;55.43;97861.81;4995374;28;20044;-75
2021/10/01 08:24:17;;;;;;;3.92;1.33;;;;;;;13.57;55.15;97859.97;5009367;28;20160;-77
2021/10/01 08:26:43;;;;;;;2.67;1.00;;;;;;;13.68;53.89;97860.88;5012109;28;20033;-76
2021/10/01 08:29:09;;;;;;;4.93;1.10;;;;;;;13.46;54.22;97853.59;5018167;28;20144;-77
2021/10/01 08:31:34;;;;;;;3.20;0.90;;;;;;;13.39;54.51;97860.06;5004607;28;20030;-77
2021/10/01 08:34:00;;;;;;;2.40;0.88;;;;;;;13.33;55.25;97855.66;5022799;28;20087;-77
2021/10/01 08:36:25;;;;;;;0.93;0.50;;;;;;;13.45;54.51;97855.47;5017934;28;20029;-76
2021/10/01 08:38:51;;;;;;;3.42;0.90;;;;;;;13.56;55.24;97850.19;5016138;28;20425;-76
2021/10/01 08:41:16;;;;;;;4.05;1.05;;;;;;;13.82;54.65;97840.28;5019555;28;20502;-77
2021/10/01 08:43:43;;;;;;;1.15;0.77;;;;;;;13.98;53.65;97843.94;4994346;28;20029;-77
2021/10/01 08:46:09;;;;;;;2.15;1.00;;;;;;;14.36;53.32;97849.31;5008847;28;20115;-77
2021/10/01 08:48:36;;;;;;;3.85;0.95;;;;;;;14.19;52.24;97838.59;5015241;28;20037;-77
2021/10/01 08:51:02;;;;;;;3.63;1.05;;;;;;;13.88;52.73;97841.97;5013644;28;20497;-76
2021/10/01 08:53:27;;;;;;;1.35;0.80;;;;;;;13.84;52.86;97837.31;5016267;28;20187;-76
2021/10/01 08:55:53;;;;;;;1.25;0.63;;;;;;;14.37;52.24;97831.88;5017763;28;20036;-77
2021/10/01 08:58:21;;;;;;;1.70;0.80;;;;;;;14.78;52.47;97825.00;5023054;28;20030;-77
2021/10/01 09:00:49;;;;;;;2.80;0.88;;;;;;;15.10;51.33;97820.44;5022816;28;20108;-77
2021/10/01 09:03:16;;;;;;;3.17;1.30;;;;;;;15.08;51.73;97818.75;5014419;28;20041;-77
2021/10/01 09:05:41;;;;;;;1.33;0.65;;;;;;;15.29;51.13;97818.00;5009028;28;20343;-77
2021/10/01 09:08:15;;;;;;;1.98;0.95;;;;;;;14.56;51.68;97817.81;4999514;28;20108;-77
2021/10/01 09:10:41;;;;;;;3.28;1.30;;;;;;;15.08;51.98;97813.31;5005690;28;20017;-77
2021/10/01 09:13:09;;;;;;;3.90;0.90;;;;;;;15.28;52.95;97819.06;5001179;28;20695;-76
2021/10/01 09:15:41;;;;;;;4.82;1.05;;;;;;;15.52;51.30;97818.53;5024510;28;20098;-77
2021/10/01 09:18:07;;;;;;;1.95;0.90;;;;;;;15.45;51.45;97811.41;5008093;28;20031;-77
2021/10/01 09:20:33;;;;;;;2.45;0.77;;;;;;;15.43;50.92;97808.16;5019970;28;20108;-76
2021/10/01 09:23:12;;;;;;;1.50;0.98;;;;;;;15.48;50.72;97812.78;5016038;28;20034;-76
2021/10/01 09:25:37;;;;;;;3.53;1.20;;;;;;;15.62;50.24;97806.78;5020054;28;20077;-77
2021/10/01 09:28:03;;;;;;;3.53;1.20;;;;;;;15.85;52.00;97795.28;5021982;28;20143;-77
2021/10/01 09:30:28;;;;;;;1.98;0.90;;;;;;;16.29;50.04;97792.19;5017222;28;20379;-77
2021/10/01 09:33:10;;;;;;;3.00;1.05;;;;;;;16.22;50.48;97787.03;5022112;28;20055;-76
2021/10/01 09:35:36;;;;;;;;;;;;;;;16.28;48.63;97787.84;4996451;28;20024;-77
2021/10/01 09:38:13;;;;;;;3.95;1.00;;;;;;;16.43;48.00;97787.75;4991077;28;19917;-80
2021/10/01 09:40:40;;;;;;;3.03;1.13;;;;;;;16.94;46.80;97785.84;5015016;28;20318;-77
2021/10/01 09:43:07;;;;;;;2.45;0.77;;;;;;;17.11;44.88;97779.19;5009968;28;20475;-75
2021/10/01 09:45:32;;;;;;;2.72;1.00;;;;;;;16.94;45.98;97769.41;5010313;28;20043;-75
2021/10/01 09:48:04;;;;;;;3.40;0.80;;;;;;;17.03;46.81;97764.19;5021768;28;20040;-74
2021/10/01 09:50:32;;;;;;;3.42;1.02;;;;;;;17.31;46.95;97763.72;5018348;28;20118;-75
2021/10/01 09:53:02;;;;;;;4.82;0.90;;;;;;;17.62;45.02;97760.69;5020938;28;20486;-75
2021/10/01 09:55:35;;;;;;;2.00;0.90;;;;;;;17.37;45.78;97760.66;5022373;28;20053;-76
2021/10/01 09:58:09;;;;;;;2.42;1.00;;;;;;;17.53;44.86;97750.38;5009199;28;20278;-75
2021/10/01 10:00:42;;;;;;;1.38;0.73;;;;;;;17.36;45.39;97739.84;4990730;28;20186;-75
2021/10/01 10:03:13;;;;;;;4.22;1.63;;;;;;;17.23;44.70;97744.06;5003658;28;20037;-76
2021/10/01 10:06:03;;;;;;;3.25;1.00;;;;;;;17.45;44.40;97729.09;5012522;28;20079;-76
2021/10/01 10:08:47;;;;;;;2.85;0.90;;;;;;;17.46;44.86;97729.94;5005787;28;20069;-77
2021/10/01 10:11:17;;;;;;;3.40;1.20;;;;;;;17.44;44.54;97730.22;5009735;28;20418;-77
2021/10/01 10:13:49;;;;;;;2.88;0.95;;;;;;;17.92;43.74;97726.69;5005898;28;20427;-77
2021/10/01 10:16:18;;;;;;;2.33;0.95;;;;;;;17.98;43.56;97721.16;5017676;28;20057;-77
2021/10/01 10:18:50;;;;;;;2.85;1.10;;;;;;;18.02;43.33;97717.53;4992062;28;20038;-77
2021/10/01 10:21:16;;;;;;;2.65;0.93;;;;;;;18.56;43.84;97727.56;5004639;28;20034;-77
2021/10/01 10:23:42;;;;;;;10.88;1.75;;;;;;;18.96;42.27;97728.06;5019530;28;20025;-78
2021/10/01 10:26:08;;;;;;;1.45;0.80;;;;;;;18.91;41.54;97719.91;5020480;28;20033;-78
2021/10/01 10:28:36;;;;;;;1.60;0.80;;;;;;;18.64;41.36;97717.88;5016265;28;20052;-77
2021/10/01 10:31:01;;;;;;;1.60;0.68;;;;;;;18.67;41.06;97720.00;5002627;28;20051;-77
2021/10/01 10:33:46;;;;;;;4.07;1.08;;;;;;;18.80;40.71;97713.75;5019473;28;20033;-78
2021/10/01 10:36:30;;;;;;;4.45;1.10;;;;;;;19.43;40.56;97707.28;5013384;28;20030;-78
2021/10/01 10:39:00;;;;;;;2.88;0.90;;;;;;;19.41;40.15;97707.59;5007258;28;20057;-77
2021/10/01 10:41:28;;;;;;;2.65;0.70;;;;;;;19.16;39.40;97709.66;5011307;28;20029;-77
2021/10/01 10:43:54;;;;;;;2.85;0.80;;;;;;;19.27;39.43;97713.03;5027709;28;20033;-76
2021/10/01 10:46:34;;;;;;;5.68;1.42;;;;;;;20.36;38.11;97708.25;5013553;28;20427;-77
2021/10/01 10:49:19;;;;;;;1.03;0.50;;;;;;;20.19;37.82;97705.31;5026583;28;20040;-76
2021/10/01 10:52:16;;;;;;;1.70;0.55;;;;;;;19.93;37.00;97694.81;5027591;28;20025;-78
2021/10/01 10:54:50;;;;;;;2.20;0.82;;;;;;;20.84;36.79;97688.72;5021567;28;20498;-78
2021/10/01 10:57:21;;;;;;;3.22;0.73;;;;;;;21.42;36.08;97684.28;5026031;28;20072;-78
2021/10/01 10:59:51;;;;;;;4.18;0.60;;;;;;;21.82;35.67;97686.25;5006482;28;20032;-78
2021/10/01 11:02:32;;;;;;;8.65;5.28;;;;;;;20.57;36.25;97682.22;5009547;28;20112;-77
2021/10/01 11:05:26;;;;;;;1.75;0.60;;;;;;;21.28;34.41;97683.56;4994798;28;20391;-77
2021/10/01 11:07:57;;;;;;;2.83;0.70;;;;;;;22.08;34.17;97680.00;5014547;28;20064;-78
2021/10/01 11:10:43;;;;;;;3.47;0.80;;;;;;;22.22;33.46;97685.41;5017239;28;20041;-77
2021/10/01 11:13:23;;;;;;;1.42;0.60;;;;;;;22.26;33.61;97685.56;4992761;28;20048;-78
2021/10/01 11:16:19;;;;;;;4.15;0.70;;;;;;;21.95;34.25;97676.25;5010347;28;20056;-77
2021/10/01 11:21:25;;;;;;;4.03;0.80;;;;;;;22.44;34.13;97672.59;5022605;28;20072;-78
2021/10/01 11:24:35;;;;;;;2.53;1.02;;;;;;;22.52;34.23;97659.94;5024242;28;20354;-78
2021/10/01 11:27:00;;;;;;;3.30;0.68;;;;;;;23.11;34.36;97655.06;5023141;28;20056;-77
2021/10/01 11:29:34;;;;;;;2.60;0.98;;;;;;;21.84;33.99;97658.38;5023077;28;20394;-78
2021/10/01 11:32:08;;;;;;;1.98;0.70;;;;;;;22.28;34.05;97657.66;5008181;28;20394;-78
2021/10/01 11:34:42;;;;;;;3.35;0.80;;;;;;;21.94;34.76;97654.53;5026119;28;20052;-78
2021/10/01 11:37:33;;;;;;;1.50;0.63;;;;;;;22.33;34.43;97643.69;5002450;28;20033;-78
2021/10/01 11:40:05;;;;;;;3.15;1.02;;;;;;;22.06;34.87;97640.94;5023796;28;20551;-77
2021/10/01 11:42:39;;;;;;;2.67;1.30;;;;;;;22.40;35.59;97634.97;5012791;28;20120;-77
2021/10/01 11:45:19;;;;;;;3.78;0.88;;;;;;;22.81;34.92;97628.16;5009389;28;20097;-79
2021/10/01 11:47:53;;;;;;;2.53;0.70;;;;;;;23.22;34.21;97628.72;5015965;28;20052;-76
2021/10/01 11:50:18;;;;;;;4.38;1.23;;;;;;;23.42;33.34;97620.06;4998481;28;20034;-77
2021/10/01 11:52:45;;;;;;;3.47;1.00;;;;;;;23.66;32.47;97613.94;5007082;28;20510;-77
2021/10/01 11:55:12;;;;;;;2.42;0.65;;;;;;;23.35;33.50;97607.59;5014316;28;20045;-77
2021/10/01 11:57:46;;;;;;;4.60;0.80;;;;;;;23.48;34.07;97604.94;4999434;28;20120;-77
2021/10/01 12:00:14;;;;;;;2.05;0.80;;;;;;;23.76;34.57;97596.97;5024158;28;20029;-77
2021/10/01 12:02:45;;;;;;;2.58;0.90;;;;;;;23.82;33.52;97594.84;5025934;28;20025;-78
2021/10/01 12:05:35;;;;;;;2.30;0.82;;;;;;;23.86;32.44;97587.50;5019907;28;20033;-77
2021/10/01 12:08:01;;;;;;;1.65;0.68;;;;;;;23.81;32.79;97589.63;5000205;28;20103;-77
2021/10/01 12:10:29;;;;;;;5.05;0.90;;;;;;;24.29;31.50;97582.00;5016394;28;20263;-77
2021/10/01 12:13:07;;;;;;;1.75;0.70;;;;;;;23.17;31.50;97572.84;4991141;28;20022;-76
2021/10/01 12:15:42;;;;;;;1.60;0.63;;;;;;;24.02;33.62;97575.81;5016571;28;20115;-76
2021/10/01 12:18:28;;;;;;;3.35;0.63;;;;;;;24.48;31.82;97569.63;5020885;28;20025;-75
2021/10/01 12:20:55;;;;;;;3.60;0.70;;;;;;;24.61;31.77;97576.84;5025605;28;20026;-76
2021/10/01 12:23:27;;;;;;;1.40;0.50;;;;;;;24.46;28.11;97572.75;5004991;28;20022;-76
2021/10/01 12:25:53;;;;;;;2.00;0.63;;;;;;;24.22;28.25;97563.19;5008452;28;20041;-76
2021/10/01 12:28:20;;;;;;;1.73;0.68;;;;;;;24.19;30.38;97561.09;4989931;28;20022;-77
2021/10/01 12:30:57;;;;;;;1.55;0.57;;;;;;;24.33;31.42;97558.06;5002616;28;20092;-76
2021/10/01 12:33:23;;;;;;;2.40;0.70;;;;;;;24.23;30.96;97552.91;5014870;28;20105;-77
2021/10/01 12:35:48;;;;;;;1.95;0.60;;;;;;;24.15;29.83;97558.19;4999847;28;20136;-77
2021/10/01 12:38:14;;;;;;;3.08;0.73;;;;;;;24.19;29.13;97552.81;5000560;28;20100;-79
2021/10/01 12:40:39;;;;;;;2.38;0.63;;;;;;;23.97;28.95;97553.91;5017239;28;20034;-79
2021/10/01 12:43:04;;;;;;;2.22;0.73;;;;;;;23.48;28.75;97546.91;5012691;28;20159;-78
2021/10/01 12:45:29;;;;;;;4.10;0.70;;;;;;;23.27;30.46;97542.09;5021601;28;20030;-78
2021/10/01 12:47:55;;;;;;;1.90;0.68;;;;;;;23.69;30.23;97551.66;5014220;28;20061;-79
2021/10/01 12:50:28;;;;;;;2.65;0.70;;;;;;;23.59;29.76;97539.84;5024985;28;20030;-77
2021/10/01 12:52:56;;;;;;;2.65;0.80;;;;;;;23.36;30.67;97534.59;5007327;28;20380;-78
2021/10/01 12:55:21;;;;;;;3.30;0.73;;;;;;;24.19;31.85;97530.66;5022068;28;20518;-78
2021/10/01 12:57:48;;;;;;;3.83;0.75;;;;;;;24.69;29.36;97528.06;5023753;28;20033;-78
2021/10/01 13:00:18;;;;;;;1.73;0.60;;;;;;;23.74;30.03;97521.84;5014307;28;20402;-78
2021/10/01 13:02:46;;;;;;;2.40;0.70;;;;;;;24.28;29.26;97517.56;5014627;28;20037;-78